Clearville, PA (15535)

8:08 AM EST on February 10, 2016 (GMT -0500)
Four Quarters | | Change Station
CLOSE
Current Station
Personal Weather Station
Location: Artemas, PA
Elevation: 768 ft
Nearby Weather Stations

Elev 768 ft 39.75 °N, 78.37 °W | Updated 11 seconds ago

Overcast
Overcast
26.8 °F
Feels Like 19 °F
N
6.7
Wind Variable Wind from WNW
Gusts 7.4 mph

Today
High -- | Low -- °F
--% Chance of Precip.
Yesterday
High -- | Low -- °F
Precip. -- in
Pressure 29.73 in
Visibility 7.0 miles
Clouds Overcast 3100 ft
Windchill 19 °F
Dew Point 12 °F
Humidity 53%
Rainfall 0.00 in
Snow Depth Not available.
7:13 AM 5:43 PM
Waxing Crescent, 5% visible
METAR KHMZ 101255Z AUTO 28016G21KT 7SM -SN OVC031 M05/M10 A2973 RMK AO2 T10471105
Pressure 29.73 in
Visibility 7.0 miles
Clouds Overcast 3100 ft
Windchill 19 °F
Dew Point 12 °F
Humidity 53%
Rainfall 0.00 in
Snow Depth Not available.
7:13 AM 5:43 PM
Waxing Crescent, 5% visible
METAR KHMZ 101255Z AUTO 28016G21KT 7SM -SN OVC031 M05/M10 A2973 RMK AO2 T10471105

10-Day Weather Forecast

Almanac

Astronomy

Feb. 10, 2016 Rise Set
Actual Time
Civil Twilight
Nautical Twilight
Astronomical Twilight
Moon
Length of Visible Light
Length of Day
Tomorrow will be .
, % of the Moon is Illuminated

Today's Extremes

State Highs State Lows

Community

WunderPhotos

Upload Photos

1,891,838 photos uploaded!

WunderBlog® & News

Nearby

Air Quality

  Air Quality AQ Index Pollutant
Not available.

Snow Depth

Station Depth Elevation

Earthquake Activity

City Distance Mag. Time & Date
Minimum magnitude displayed is 2.5.

Coastal Water Temperatures

Place Temperature

Stations

Nearby Weather Stations

Station Location Temp. Windchill Dew Point Humidity Wind Precip. Elev Updated Type
                   

Watches & Warnings

There are currently no watches in effect.